Washington Navy Yard, District of Columbia
Current Conditions -  °F | °C
As of 1:52 PM on Thursday 30 Oct 2014 (Local Time) from KDCA Reporting Station
Scattered Clouds Scattered Clouds  
Wind Chill: 60°   Ceiling: Unl
Heat Index: 60°   Visibility: 10mi
Dew Point: 36°   Wind: 7mph
Humidity: 41%   Direction: 10°N
Pressure: 30.04"   Gusts: 18mph
Location:  38.9163°N, 76.9946°W
Report Text: KDCA 301752Z 01006G16KT 10SM SCT050 16/02 A3004 RMK AO2 SLP172 T01560022 10167 20106 58015
Loading
Personal Weather Stations






























Interactive Weather Map
Tropical Storm Tracking
New forecast layout! Learn more

10-Day Weather Forecast

Advertisements
Track Severe Weather on mobile